sensor_id;sensor_type;location;lat;lon;timestamp;temperature;humidity
26982;DHT22;14533;50.848;4.380;2022-12-07T00:00:49;6.90;99.90
26982;DHT22;14533;50.848;4.380;2022-12-07T00:03:15;6.80;99.90
26982;DHT22;14533;50.848;4.380;2022-12-07T00:05:40;6.70;99.90
26982;DHT22;14533;50.848;4.380;2022-12-07T00:08:07;6.60;99.90
26982;DHT22;14533;50.848;4.380;2022-12-07T00:10:35;6.60;99.90
26982;DHT22;14533;50.848;4.380;2022-12-07T00:13:02;6.80;99.90
26982;DHT22;14533;50.848;4.380;2022-12-07T00:15:28;6.80;99.90
26982;DHT22;14533;50.848;4.380;2022-12-07T00:17:53;6.50;99.90
26982;DHT22;14533;50.848;4.380;2022-12-07T00:20:19;6.40;99.90
26982;DHT22;14533;50.848;4.380;2022-12-07T00:22:45;6.30;99.90
26982;DHT22;14533;50.848;4.380;2022-12-07T00:25:10;6.30;99.90
26982;DHT22;14533;50.848;4.380;2022-12-07T00:27:36;6.30;99.90
26982;DHT22;14533;50.848;4.380;2022-12-07T00:30:01;6.30;99.90
26982;DHT22;14533;50.848;4.380;2022-12-07T00:32:27;6.20;99.90
26982;DHT22;14533;50.848;4.380;2022-12-07T00:34:54;6.40;99.90
26982;DHT22;14533;50.848;4.380;2022-12-07T00:37:19;6.40;99.90
26982;DHT22;14533;50.848;4.380;2022-12-07T00:39:46;6.30;99.90
26982;DHT22;14533;50.848;4.380;2022-12-07T00:42:11;6.20;99.90
26982;DHT22;14533;50.848;4.380;2022-12-07T00:44:37;6.10;99.90
26982;DHT22;14533;50.848;4.380;2022-12-07T00:47:03;6.20;99.90
26982;DHT22;14533;50.848;4.380;2022-12-07T00:49:28;6.30;99.90
26982;DHT22;14533;50.848;4.380;2022-12-07T00:51:54;6.30;99.90
26982;DHT22;14533;50.848;4.380;2022-12-07T00:54:20;6.20;99.90
26982;DHT22;14533;50.848;4.380;2022-12-07T00:56:46;6.40;99.90
26982;DHT22;14533;50.848;4.380;2022-12-07T00:59:13;6.40;99.90
26982;DHT22;14533;50.848;4.380;2022-12-07T01:01:42;6.30;99.90
26982;DHT22;14533;50.848;4.380;2022-12-07T01:04:08;6.30;99.90
26982;DHT22;14533;50.848;4.380;2022-12-07T01:06:34;6.20;99.90
26982;DHT22;14533;50.848;4.380;2022-12-07T01:09:00;6.30;99.90
26982;DHT22;14533;50.848;4.380;2022-12-07T01:11:29;6.10;99.90
26982;DHT22;14533;50.848;4.380;2022-12-07T01:13:56;6.00;99.90
26982;DHT22;14533;50.848;4.380;2022-12-07T01:16:24;5.90;99.90
26982;DHT22;14533;50.848;4.380;2022-12-07T01:18:52;6.10;99.90
26982;DHT22;14533;50.848;4.380;2022-12-07T01:21:30;6.00;99.90
26982;DHT22;14533;50.848;4.380;2022-12-07T01:24:00;6.10;99.90
26982;DHT22;14533;50.848;4.380;2022-12-07T01:26:27;6.30;99.90
26982;DHT22;14533;50.848;4.380;2022-12-07T01:28:53;6.10;99.90
26982;DHT22;14533;50.848;4.380;2022-12-07T01:31:22;6.10;99.90
26982;DHT22;14533;50.848;4.380;2022-12-07T01:33:51;6.20;99.90
26982;DHT22;14533;50.848;4.380;2022-12-07T01:36:19;6.10;99.90
26982;DHT22;14533;50.848;4.380;2022-12-07T01:38:47;6.10;99.90
26982;DHT22;14533;50.848;4.380;2022-12-07T01:41:13;6.00;99.90
26982;DHT22;14533;50.848;4.380;2022-12-07T01:44:09;6.10;99.90
26982;DHT22;14533;50.848;4.380;2022-12-07T01:46:35;6.10;99.90
26982;DHT22;14533;50.848;4.380;2022-12-07T01:49:01;6.20;99.90
26982;DHT22;14533;50.848;4.380;2022-12-07T01:51:28;6.20;99.90
26982;DHT22;14533;50.848;4.380;2022-12-07T01:53:54;6.30;99.90
26982;DHT22;14533;50.848;4.380;2022-12-07T01:56:24;6.20;99.90
26982;DHT22;14533;50.848;4.380;2022-12-07T01:58:51;6.30;99.90
26982;DHT22;14533;50.848;4.380;2022-12-07T02:01:18;6.60;99.90
26982;DHT22;14533;50.848;4.380;2022-12-07T02:03:45;6.60;99.90
26982;DHT22;14533;50.848;4.380;2022-12-07T02:06:13;6.50;99.90
26982;DHT22;14533;50.848;4.380;2022-12-07T02:08:41;6.40;99.90
26982;DHT22;14533;50.848;4.380;2022-12-07T02:11:08;6.30;99.90
26982;DHT22;14533;50.848;4.380;2022-12-07T02:13:36;6.30;99.90
26982;DHT22;14533;50.848;4.380;2022-12-07T02:19:04;6.10;99.90
26982;DHT22;14533;50.848;4.380;2022-12-07T02:21:58;5.90;99.90
26982;DHT22;14533;50.848;4.380;2022-12-07T02:25:09;5.90;99.90
26982;DHT22;14533;50.848;4.380;2022-12-07T02:27:52;5.90;99.90
26982;DHT22;14533;50.848;4.380;2022-12-07T02:30:28;5.80;99.90
26982;DHT22;14533;50.848;4.380;2022-12-07T02:33:04;5.90;99.90
26982;DHT22;14533;50.848;4.380;2022-12-07T02:38:38;6.40;99.90
26982;DHT22;14533;50.848;4.380;2022-12-07T02:41:16;6.30;99.90
26982;DHT22;14533;50.848;4.380;2022-12-07T02:43:47;6.40;99.90
26982;DHT22;14533;50.848;4.380;2022-12-07T02:46:23;6.10;99.90
26982;DHT22;14533;50.848;4.380;2022-12-07T02:48:51;6.00;99.90
26982;DHT22;14533;50.848;4.380;2022-12-07T02:51:19;6.40;99.90
26982;DHT22;14533;50.848;4.380;2022-12-07T02:53:44;6.30;99.90
26982;DHT22;14533;50.848;4.380;2022-12-07T03:01:41;6.40;99.90
26982;DHT22;14533;50.848;4.380;2022-12-07T03:04:30;6.30;99.90
26982;DHT22;14533;50.848;4.380;2022-12-07T03:16:14;6.20;99.90
26982;DHT22;14533;50.848;4.380;2022-12-07T03:19:19;6.10;99.90
26982;DHT22;14533;50.848;4.380;2022-12-07T03:21:27;5.90;99.90
26982;DHT22;14533;50.848;4.380;2022-12-07T03:23:56;5.80;99.90
26982;DHT22;14533;50.848;4.380;2022-12-07T03:26:36;6.00;99.90
26982;DHT22;14533;50.848;4.380;2022-12-07T03:29:12;6.10;99.90
26982;DHT22;14533;50.848;4.380;2022-12-07T03:31:43;6.10;99.90
26982;DHT22;14533;50.848;4.380;2022-12-07T03:34:24;6.10;99.90
26982;DHT22;14533;50.848;4.380;2022-12-07T03:37:04;6.10;99.90
26982;DHT22;14533;50.848;4.380;2022-12-07T03:39:37;6.10;99.90
26982;DHT22;14533;50.848;4.380;2022-12-07T03:42:07;6.00;99.90
26982;DHT22;14533;50.848;4.380;2022-12-07T03:44:35;5.90;99.90
26982;DHT22;14533;50.848;4.380;2022-12-07T03:49:55;5.80;99.90
26982;DHT22;14533;50.848;4.380;2022-12-07T03:54:55;6.10;99.90
26982;DHT22;14533;50.848;4.380;2022-12-07T03:57:22;6.10;99.90
26982;DHT22;14533;50.848;4.380;2022-12-07T03:59:49;6.00;99.90
26982;DHT22;14533;50.848;4.380;2022-12-07T04:02:16;5.90;99.90
26982;DHT22;14533;50.848;4.380;2022-12-07T04:04:42;5.90;99.90
26982;DHT22;14533;50.848;4.380;2022-12-07T04:07:08;6.00;99.90
26982;DHT22;14533;50.848;4.380;2022-12-07T04:09:34;6.00;99.90
26982;DHT22;14533;50.848;4.380;2022-12-07T04:11:59;5.90;99.90
26982;DHT22;14533;50.848;4.380;2022-12-07T04:14:25;5.90;99.90
26982;DHT22;14533;50.848;4.380;2022-12-07T04:16:56;5.80;99.90
26982;DHT22;14533;50.848;4.380;2022-12-07T04:19:30;5.90;99.90
26982;DHT22;14533;50.848;4.380;2022-12-07T04:21:58;5.90;99.90
26982;DHT22;14533;50.848;4.380;2022-12-07T04:24:24;5.90;99.90
26982;DHT22;14533;50.848;4.380;2022-12-07T04:26:50;5.90;99.90
26982;DHT22;14533;50.848;4.380;2022-12-07T04:29:16;5.90;99.90
26982;DHT22;14533;50.848;4.380;2022-12-07T04:31:45;6.00;99.90
26982;DHT22;14533;50.848;4.380;2022-12-07T04:34:11;6.00;99.90
26982;DHT22;14533;50.848;4.380;2022-12-07T04:36:37;5.80;99.90
26982;DHT22;14533;50.848;4.380;2022-12-07T04:39:04;5.90;99.90
26982;DHT22;14533;50.848;4.380;2022-12-07T04:41:30;5.90;99.90
26982;DHT22;14533;50.848;4.380;2022-12-07T04:44:00;5.80;99.90
26982;DHT22;14533;50.848;4.380;2022-12-07T04:46:27;5.90;99.90
26982;DHT22;14533;50.848;4.380;2022-12-07T04:48:53;5.90;99.90
26982;DHT22;14533;50.848;4.380;2022-12-07T04:51:22;5.80;99.90
26982;DHT22;14533;50.848;4.380;2022-12-07T04:53:48;5.80;99.90
26982;DHT22;14533;50.848;4.380;2022-12-07T04:56:14;5.80;99.90
26982;DHT22;14533;50.848;4.380;2022-12-07T04:58:41;5.80;99.90
26982;DHT22;14533;50.848;4.380;2022-12-07T05:01:07;5.70;99.90
26982;DHT22;14533;50.848;4.380;2022-12-07T05:03:32;5.70;99.90
26982;DHT22;14533;50.848;4.380;2022-12-07T05:05:58;5.70;99.90
26982;DHT22;14533;50.848;4.380;2022-12-07T05:08:24;5.60;99.90
26982;DHT22;14533;50.848;4.380;2022-12-07T05:10:49;5.60;99.90
26982;DHT22;14533;50.848;4.380;2022-12-07T05:13:16;5.70;99.90
26982;DHT22;14533;50.848;4.380;2022-12-07T05:15:42;5.70;99.90
26982;DHT22;14533;50.848;4.380;2022-12-07T05:18:10;5.80;99.90
26982;DHT22;14533;50.848;4.380;2022-12-07T05:20:39;5.80;99.90
26982;DHT22;14533;50.848;4.380;2022-12-07T05:23:05;5.70;99.90
26982;DHT22;14533;50.848;4.380;2022-12-07T05:25:30;5.80;99.90
26982;DHT22;14533;50.848;4.380;2022-12-07T05:27:56;5.80;99.90
26982;DHT22;14533;50.848;4.380;2022-12-07T05:30:23;5.70;99.90
26982;DHT22;14533;50.848;4.380;2022-12-07T05:32:49;5.70;99.90
26982;DHT22;14533;50.848;4.380;2022-12-07T05:35:15;5.80;99.90
26982;DHT22;14533;50.848;4.380;2022-12-07T05:37:41;5.70;99.90
26982;DHT22;14533;50.848;4.380;2022-12-07T05:40:07;5.80;99.90
26982;DHT22;14533;50.848;4.380;2022-12-07T05:42:33;5.50;99.90
26982;DHT22;14533;50.848;4.380;2022-12-07T05:44:59;5.60;99.90
26982;DHT22;14533;50.848;4.380;2022-12-07T05:47:24;5.70;99.90
26982;DHT22;14533;50.848;4.380;2022-12-07T05:49:50;5.70;99.90
26982;DHT22;14533;50.848;4.380;2022-12-07T05:52:16;5.60;99.90
26982;DHT22;14533;50.848;4.380;2022-12-07T05:54:41;5.50;99.90
26982;DHT22;14533;50.848;4.380;2022-12-07T05:57:08;5.60;99.90
26982;DHT22;14533;50.848;4.380;2022-12-07T05:59:33;5.70;99.90
26982;DHT22;14533;50.848;4.380;2022-12-07T06:02:02;5.70;99.90
26982;DHT22;14533;50.848;4.380;2022-12-07T06:04:34;5.80;99.90
26982;DHT22;14533;50.848;4.380;2022-12-07T06:07:00;5.80;99.90
26982;DHT22;14533;50.848;4.380;2022-12-07T06:09:27;5.70;99.90
26982;DHT22;14533;50.848;4.380;2022-12-07T06:11:54;5.60;99.90
26982;DHT22;14533;50.848;4.380;2022-12-07T06:14:39;5.60;99.90
26982;DHT22;14533;50.848;4.380;2022-12-07T06:17:05;5.90;99.90
26982;DHT22;14533;50.848;4.380;2022-12-07T06:19:31;5.80;99.90
26982;DHT22;14533;50.848;4.380;2022-12-07T06:21:57;5.80;99.90
26982;DHT22;14533;50.848;4.380;2022-12-07T06:24:23;5.90;99.90
26982;DHT22;14533;50.848;4.380;2022-12-07T06:26:49;5.90;99.90
26982;DHT22;14533;50.848;4.380;2022-12-07T06:29:18;5.80;99.90
26982;DHT22;14533;50.848;4.380;2022-12-07T06:31:45;5.80;99.90
26982;DHT22;14533;50.848;4.380;2022-12-07T06:34:17;5.60;99.90
26982;DHT22;14533;50.848;4.380;2022-12-07T06:36:43;5.70;99.90
26982;DHT22;14533;50.848;4.380;2022-12-07T06:39:10;5.60;99.90
26982;DHT22;14533;50.848;4.380;2022-12-07T06:41:37;5.60;99.90
26982;DHT22;14533;50.848;4.380;2022-12-07T06:44:04;5.60;99.90
26982;DHT22;14533;50.848;4.380;2022-12-07T06:46:30;5.60;99.90
26982;DHT22;14533;50.848;4.380;2022-12-07T06:48:55;5.70;99.90
26982;DHT22;14533;50.848;4.380;2022-12-07T06:51:22;5.90;99.90
26982;DHT22;14533;50.848;4.380;2022-12-07T06:53:47;5.90;99.90
26982;DHT22;14533;50.848;4.380;2022-12-07T06:56:13;6.00;99.90
26982;DHT22;14533;50.848;4.380;2022-12-07T06:58:39;6.00;99.90
26982;DHT22;14533;50.848;4.380;2022-12-07T07:01:09;6.10;99.90
26982;DHT22;14533;50.848;4.380;2022-12-07T07:03:36;6.20;99.90
26982;DHT22;14533;50.848;4.380;2022-12-07T07:06:02;6.10;99.90
26982;DHT22;14533;50.848;4.380;2022-12-07T07:08:28;6.10;99.90
26982;DHT22;14533;50.848;4.380;2022-12-07T07:10:53;6.30;99.90
26982;DHT22;14533;50.848;4.380;2022-12-07T07:13:19;6.60;99.90
26982;DHT22;14533;50.848;4.380;2022-12-07T07:15:45;6.60;99.90
26982;DHT22;14533;50.848;4.380;2022-12-07T07:18:11;6.50;99.90
26982;DHT22;14533;50.848;4.380;2022-12-07T07:20:37;6.40;99.90
26982;DHT22;14533;50.848;4.380;2022-12-07T07:23:04;6.30;99.90
26982;DHT22;14533;50.848;4.380;2022-12-07T07:25:30;6.30;99.90
26982;DHT22;14533;50.848;4.380;2022-12-07T07:27:55;6.20;99.90
26982;DHT22;14533;50.848;4.380;2022-12-07T07:30:21;6.20;99.90
26982;DHT22;14533;50.848;4.380;2022-12-07T07:32:47;6.20;99.90
26982;DHT22;14533;50.848;4.380;2022-12-07T07:35:13;6.00;99.90
26982;DHT22;14533;50.848;4.380;2022-12-07T07:37:42;6.00;99.90
26982;DHT22;14533;50.848;4.380;2022-12-07T07:40:09;6.00;99.90
26982;DHT22;14533;50.848;4.380;2022-12-07T07:42:35;6.00;99.90
26982;DHT22;14533;50.848;4.380;2022-12-07T07:45:01;6.00;99.90
26982;DHT22;14533;50.848;4.380;2022-12-07T07:47:27;5.80;99.90
26982;DHT22;14533;50.848;4.380;2022-12-07T07:49:54;5.80;99.90
26982;DHT22;14533;50.848;4.380;2022-12-07T07:52:20;6.10;99.90
26982;DHT22;14533;50.848;4.380;2022-12-07T07:54:45;6.10;99.90
26982;DHT22;14533;50.848;4.380;2022-12-07T07:57:11;6.00;99.90
26982;DHT22;14533;50.848;4.380;2022-12-07T07:59:37;5.90;99.90
26982;DHT22;14533;50.848;4.380;2022-12-07T08:02:02;6.00;99.90
26982;DHT22;14533;50.848;4.380;2022-12-07T08:04:28;5.90;99.90
26982;DHT22;14533;50.848;4.380;2022-12-07T08:06:54;6.00;99.90
26982;DHT22;14533;50.848;4.380;2022-12-07T08:09:19;6.00;99.90
26982;DHT22;14533;50.848;4.380;2022-12-07T08:11:45;6.00;99.90
26982;DHT22;14533;50.848;4.380;2022-12-07T08:14:11;6.00;99.90
26982;DHT22;14533;50.848;4.380;2022-12-07T08:16:37;6.00;99.90
26982;DHT22;14533;50.848;4.380;2022-12-07T08:19:05;6.00;99.90
26982;DHT22;14533;50.848;4.380;2022-12-07T08:21:31;6.10;99.90
26982;DHT22;14533;50.848;4.380;2022-12-07T08:23:57;6.30;99.90
26982;DHT22;14533;50.848;4.380;2022-12-07T08:26:23;6.20;99.90
26982;DHT22;14533;50.848;4.380;2022-12-07T08:28:49;6.30;99.90
26982;DHT22;14533;50.848;4.380;2022-12-07T08:31:17;6.30;99.90
26982;DHT22;14533;50.848;4.380;2022-12-07T08:33:45;6.50;99.90
26982;DHT22;14533;50.848;4.380;2022-12-07T08:36:12;6.30;99.90
26982;DHT22;14533;50.848;4.380;2022-12-07T08:38:42;6.20;99.90
26982;DHT22;14533;50.848;4.380;2022-12-07T08:41:08;6.20;99.90
26982;DHT22;14533;50.848;4.380;2022-12-07T08:43:35;6.20;99.90
26982;DHT22;14533;50.848;4.380;2022-12-07T08:49:12;6.40;99.90
26982;DHT22;14533;50.848;4.380;2022-12-07T08:51:44;6.30;99.90
26982;DHT22;14533;50.848;4.380;2022-12-07T08:54:13;6.40;99.90
26982;DHT22;14533;50.848;4.380;2022-12-07T08:56:40;6.50;99.90
26982;DHT22;14533;50.848;4.380;2022-12-07T08:59:09;6.60;99.90
26982;DHT22;14533;50.848;4.380;2022-12-07T09:01:35;6.60;99.90
26982;DHT22;14533;50.848;4.380;2022-12-07T09:04:00;6.80;99.90
26982;DHT22;14533;50.848;4.380;2022-12-07T09:06:26;6.80;99.90
26982;DHT22;14533;50.848;4.380;2022-12-07T09:08:56;6.90;99.90
26982;DHT22;14533;50.848;4.380;2022-12-07T09:11:22;6.90;99.90
26982;DHT22;14533;50.848;4.380;2022-12-07T09:13:50;6.70;99.90
26982;DHT22;14533;50.848;4.380;2022-12-07T09:16:16;6.70;99.90
26982;DHT22;14533;50.848;4.380;2022-12-07T09:18:41;6.60;99.90
26982;DHT22;14533;50.848;4.380;2022-12-07T09:21:07;6.60;99.90
26982;DHT22;14533;50.848;4.380;2022-12-07T09:23:33;6.80;99.90
26982;DHT22;14533;50.848;4.380;2022-12-07T09:26:02;6.70;99.90
26982;DHT22;14533;50.848;4.380;2022-12-07T09:28:30;6.70;99.90
26982;DHT22;14533;50.848;4.380;2022-12-07T09:30:56;6.70;99.90
26982;DHT22;14533;50.848;4.380;2022-12-07T09:33:21;6.70;99.90
26982;DHT22;14533;50.848;4.380;2022-12-07T09:35:48;6.90;99.90
26982;DHT22;14533;50.848;4.380;2022-12-07T09:38:14;6.90;99.90
26982;DHT22;14533;50.848;4.380;2022-12-07T09:40:41;7.00;99.90
26982;DHT22;14533;50.848;4.380;2022-12-07T09:43:15;7.00;99.90
26982;DHT22;14533;50.848;4.380;2022-12-07T09:45:43;7.00;99.90
26982;DHT22;14533;50.848;4.380;2022-12-07T09:48:17;7.00;99.90
26982;DHT22;14533;50.848;4.380;2022-12-07T09:50:44;6.90;99.90
26982;DHT22;14533;50.848;4.380;2022-12-07T09:53:32;6.90;99.90
26982;DHT22;14533;50.848;4.380;2022-12-07T09:56:01;6.90;99.90
26982;DHT22;14533;50.848;4.380;2022-12-07T09:58:28;6.80;99.90
26982;DHT22;14533;50.848;4.380;2022-12-07T10:01:17;6.80;99.90
26982;DHT22;14533;50.848;4.380;2022-12-07T10:03:58;7.00;99.90
26982;DHT22;14533;50.848;4.380;2022-12-07T10:06:26;6.90;99.90
26982;DHT22;14533;50.848;4.380;2022-12-07T10:08:52;7.10;99.90
26982;DHT22;14533;50.848;4.380;2022-12-07T10:11:18;7.20;99.90
26982;DHT22;14533;50.848;4.380;2022-12-07T10:13:49;7.30;99.90
26982;DHT22;14533;50.848;4.380;2022-12-07T10:18:52;7.30;99.90
26982;DHT22;14533;50.848;4.380;2022-12-07T10:21:21;7.30;99.90
26982;DHT22;14533;50.848;4.380;2022-12-07T10:24:04;7.30;99.90
26982;DHT22;14533;50.848;4.380;2022-12-07T10:26:41;7.20;99.90
26982;DHT22;14533;50.848;4.380;2022-12-07T10:29:31;7.20;99.90
26982;DHT22;14533;50.848;4.380;2022-12-07T10:32:32;7.30;99.90
26982;DHT22;14533;50.848;4.380;2022-12-07T10:35:28;7.20;99.90
26982;DHT22;14533;50.848;4.380;2022-12-07T10:37:56;7.40;99.90
26982;DHT22;14533;50.848;4.380;2022-12-07T10:40:29;7.50;99.90
26982;DHT22;14533;50.848;4.380;2022-12-07T10:54:01;7.30;99.90
26982;DHT22;14533;50.848;4.380;2022-12-07T10:56:53;7.20;99.90
26982;DHT22;14533;50.848;4.380;2022-12-07T10:59:53;7.30;99.90
26982;DHT22;14533;50.848;4.380;2022-12-07T11:02:50;7.30;99.90
26982;DHT22;14533;50.848;4.380;2022-12-07T11:11:14;7.90;99.90
26982;DHT22;14533;50.848;4.380;2022-12-07T11:13:48;8.00;99.90
26982;DHT22;14533;50.848;4.380;2022-12-07T11:17:07;8.00;99.90
26982;DHT22;14533;50.848;4.380;2022-12-07T11:33:26;7.80;99.90
26982;DHT22;14533;50.848;4.380;2022-12-07T11:38:57;7.60;99.90
26982;DHT22;14533;50.848;4.380;2022-12-07T11:41:33;7.60;99.90
26982;DHT22;14533;50.848;4.380;2022-12-07T11:46:54;7.60;99.90
26982;DHT22;14533;50.848;4.380;2022-12-07T11:51:53;7.80;99.90
26982;DHT22;14533;50.848;4.380;2022-12-07T11:54:29;7.70;99.90
26982;DHT22;14533;50.848;4.380;2022-12-07T11:57:02;7.80;99.90
26982;DHT22;14533;50.848;4.380;2022-12-07T11:59:36;7.70;99.90
26982;DHT22;14533;50.848;4.380;2022-12-07T12:07:16;7.70;99.90
26982;DHT22;14533;50.848;4.380;2022-12-07T12:12:22;7.70;99.90
26982;DHT22;14533;50.848;4.380;2022-12-07T12:20:49;7.90;99.90
26982;DHT22;14533;50.848;4.380;2022-12-07T12:23:54;7.90;99.90
26982;DHT22;14533;50.848;4.380;2022-12-07T12:26:24;8.10;99.90
26982;DHT22;14533;50.848;4.380;2022-12-07T12:29:21;8.00;99.90
26982;DHT22;14533;50.848;4.380;2022-12-07T12:32:47;8.10;99.90
26982;DHT22;14533;50.848;4.380;2022-12-07T12:42:52;8.30;99.90
26982;DHT22;14533;50.848;4.380;2022-12-07T12:50:38;8.20;99.90
26982;DHT22;14533;50.848;4.380;2022-12-07T12:53:24;8.10;99.90
26982;DHT22;14533;50.848;4.380;2022-12-07T12:56:07;8.10;99.90
26982;DHT22;14533;50.848;4.380;2022-12-07T12:58:38;7.90;99.90
26982;DHT22;14533;50.848;4.380;2022-12-07T13:01:40;8.10;99.90
26982;DHT22;14533;50.848;4.380;2022-12-07T13:04:27;8.20;99.90
26982;DHT22;14533;50.848;4.380;2022-12-07T13:06:53;8.40;99.90
26982;DHT22;14533;50.848;4.380;2022-12-07T13:09:25;8.30;99.90
26982;DHT22;14533;50.848;4.380;2022-12-07T13:12:11;8.10;99.90
26982;DHT22;14533;50.848;4.380;2022-12-07T13:14:40;8.10;99.90
26982;DHT22;14533;50.848;4.380;2022-12-07T13:20:07;7.90;99.90
26982;DHT22;14533;50.848;4.380;2022-12-07T13:27:55;8.10;99.90
26982;DHT22;14533;50.848;4.380;2022-12-07T13:30:22;8.00;99.90
26982;DHT22;14533;50.848;4.380;2022-12-07T13:32:58;8.30;99.90
26982;DHT22;14533;50.848;4.380;2022-12-07T13:37:57;8.40;99.90
26982;DHT22;14533;50.848;4.380;2022-12-07T13:40:23;8.40;99.90
26982;DHT22;14533;50.848;4.380;2022-12-07T13:43:00;8.40;99.90
26982;DHT22;14533;50.848;4.380;2022-12-07T13:45:30;8.30;99.90
26982;DHT22;14533;50.848;4.380;2022-12-07T13:50:57;8.30;99.90
26982;DHT22;14533;50.848;4.380;2022-12-07T13:53:23;8.40;99.90
26982;DHT22;14533;50.848;4.380;2022-12-07T13:55:49;8.50;99.90
26982;DHT22;14533;50.848;4.380;2022-12-07T13:58:15;8.50;99.90
26982;DHT22;14533;50.848;4.380;2022-12-07T14:00:42;8.60;99.90
26982;DHT22;14533;50.848;4.380;2022-12-07T14:05:43;8.70;99.90
26982;DHT22;14533;50.848;4.380;2022-12-07T14:13:51;8.10;99.90
26982;DHT22;14533;50.848;4.380;2022-12-07T14:16:36;7.90;99.90
26982;DHT22;14533;50.848;4.380;2022-12-07T14:19:21;7.90;99.90
26982;DHT22;14533;50.848;4.380;2022-12-07T14:25:21;7.90;99.90
26982;DHT22;14533;50.848;4.380;2022-12-07T14:27:51;7.80;99.90
26982;DHT22;14533;50.848;4.380;2022-12-07T14:30:20;7.80;99.90
26982;DHT22;14533;50.848;4.380;2022-12-07T14:32:50;7.80;99.90
26982;DHT22;14533;50.848;4.380;2022-12-07T14:35:18;7.80;99.90
26982;DHT22;14533;50.848;4.380;2022-12-07T14:37:47;7.90;99.90
26982;DHT22;14533;50.848;4.380;2022-12-07T14:40:16;7.70;99.90
26982;DHT22;14533;50.848;4.380;2022-12-07T14:42:43;7.70;99.90
26982;DHT22;14533;50.848;4.380;2022-12-07T14:45:20;7.80;99.90
26982;DHT22;14533;50.848;4.380;2022-12-07T14:47:46;7.90;99.90
26982;DHT22;14533;50.848;4.380;2022-12-07T14:50:13;7.90;99.90
26982;DHT22;14533;50.848;4.380;2022-12-07T14:52:39;7.90;99.90
26982;DHT22;14533;50.848;4.380;2022-12-07T14:55:13;8.10;99.90
26982;DHT22;14533;50.848;4.380;2022-12-07T14:57:39;7.80;99.90
26982;DHT22;14533;50.848;4.380;2022-12-07T15:00:05;7.60;99.90
26982;DHT22;14533;50.848;4.380;2022-12-07T15:02:31;7.50;99.90
26982;DHT22;14533;50.848;4.380;2022-12-07T15:04:57;7.50;99.90
26982;DHT22;14533;50.848;4.380;2022-12-07T15:07:22;7.50;99.90
26982;DHT22;14533;50.848;4.380;2022-12-07T15:09:49;7.50;99.90
26982;DHT22;14533;50.848;4.380;2022-12-07T15:12:16;7.50;99.90
26982;DHT22;14533;50.848;4.380;2022-12-07T15:14:42;7.50;99.90
26982;DHT22;14533;50.848;4.380;2022-12-07T15:17:12;7.60;99.90
26982;DHT22;14533;50.848;4.380;2022-12-07T15:19:38;7.60;99.90
26982;DHT22;14533;50.848;4.380;2022-12-07T15:22:04;7.60;99.90
26982;DHT22;14533;50.848;4.380;2022-12-07T15:24:30;7.60;99.90
26982;DHT22;14533;50.848;4.380;2022-12-07T15:26:55;7.60;99.90
26982;DHT22;14533;50.848;4.380;2022-12-07T15:29:22;7.50;99.90
26982;DHT22;14533;50.848;4.380;2022-12-07T15:31:50;7.50;99.90
26982;DHT22;14533;50.848;4.380;2022-12-07T15:34:16;7.60;99.90
26982;DHT22;14533;50.848;4.380;2022-12-07T15:36:42;7.70;99.90
26982;DHT22;14533;50.848;4.380;2022-12-07T15:39:08;7.80;99.90
26982;DHT22;14533;50.848;4.380;2022-12-07T15:41:35;7.70;99.90
26982;DHT22;14533;50.848;4.380;2022-12-07T15:44:01;7.80;99.90
26982;DHT22;14533;50.848;4.380;2022-12-07T15:46:45;7.70;99.90
26982;DHT22;14533;50.848;4.380;2022-12-07T15:49:13;7.70;99.90
26982;DHT22;14533;50.848;4.380;2022-12-07T15:51:40;7.70;99.90
26982;DHT22;14533;50.848;4.380;2022-12-07T15:54:06;7.70;99.90
26982;DHT22;14533;50.848;4.380;2022-12-07T15:56:32;7.60;99.90
26982;DHT22;14533;50.848;4.380;2022-12-07T15:58:58;7.50;99.90
26982;DHT22;14533;50.848;4.380;2022-12-07T16:01:26;7.50;99.90
26982;DHT22;14533;50.848;4.380;2022-12-07T16:03:52;7.40;99.90
26982;DHT22;14533;50.848;4.380;2022-12-07T16:06:18;7.60;99.90
26982;DHT22;14533;50.848;4.380;2022-12-07T16:08:45;7.70;99.90
26982;DHT22;14533;50.848;4.380;2022-12-07T16:11:12;7.70;99.90
26982;DHT22;14533;50.848;4.380;2022-12-07T16:13:38;7.60;99.90
26982;DHT22;14533;50.848;4.380;2022-12-07T16:16:11;7.70;99.90
26982;DHT22;14533;50.848;4.380;2022-12-07T16:18:38;7.70;99.90
26982;DHT22;14533;50.848;4.380;2022-12-07T16:21:04;7.50;99.90
26982;DHT22;14533;50.848;4.380;2022-12-07T16:23:30;7.60;99.90
26982;DHT22;14533;50.848;4.380;2022-12-07T16:26:07;7.70;99.90
26982;DHT22;14533;50.848;4.380;2022-12-07T16:28:34;7.70;99.90
26982;DHT22;14533;50.848;4.380;2022-12-07T16:31:14;7.50;99.90
26982;DHT22;14533;50.848;4.380;2022-12-07T16:33:42;7.50;99.90
26982;DHT22;14533;50.848;4.380;2022-12-07T16:36:09;7.40;99.90
26982;DHT22;14533;50.848;4.380;2022-12-07T16:38:37;7.60;99.90
26982;DHT22;14533;50.848;4.380;2022-12-07T16:41:07;7.70;99.90
26982;DHT22;14533;50.848;4.380;2022-12-07T16:43:34;7.60;99.90
26982;DHT22;14533;50.848;4.380;2022-12-07T16:46:00;7.50;99.90
26982;DHT22;14533;50.848;4.380;2022-12-07T16:48:27;7.60;99.90
26982;DHT22;14533;50.848;4.380;2022-12-07T16:50:53;7.40;99.90
26982;DHT22;14533;50.848;4.380;2022-12-07T16:53:23;7.60;99.90
26982;DHT22;14533;50.848;4.380;2022-12-07T16:55:51;7.40;99.90
26982;DHT22;14533;50.848;4.380;2022-12-07T16:58:17;7.30;99.90
26982;DHT22;14533;50.848;4.380;2022-12-07T17:00:45;7.50;99.90
26982;DHT22;14533;50.848;4.380;2022-12-07T17:03:14;7.70;99.90
26982;DHT22;14533;50.848;4.380;2022-12-07T17:05:43;7.70;99.90
26982;DHT22;14533;50.848;4.380;2022-12-07T17:08:11;7.60;99.90
26982;DHT22;14533;50.848;4.380;2022-12-07T17:10:41;7.80;99.90
26982;DHT22;14533;50.848;4.380;2022-12-07T17:13:07;7.50;99.90
26982;DHT22;14533;50.848;4.380;2022-12-07T17:16:10;7.40;99.90
26982;DHT22;14533;50.848;4.380;2022-12-07T17:18:36;7.60;99.90
26982;DHT22;14533;50.848;4.380;2022-12-07T17:21:12;7.60;99.90
26982;DHT22;14533;50.848;4.380;2022-12-07T17:23:37;7.60;99.90
26982;DHT22;14533;50.848;4.380;2022-12-07T17:26:09;7.70;99.90
26982;DHT22;14533;50.848;4.380;2022-12-07T17:28:36;7.60;99.90
26982;DHT22;14533;50.848;4.380;2022-12-07T17:31:05;7.70;99.90
26982;DHT22;14533;50.848;4.380;2022-12-07T17:33:32;7.80;99.90
26982;DHT22;14533;50.848;4.380;2022-12-07T17:36:17;7.80;99.90
26982;DHT22;14533;50.848;4.380;2022-12-07T17:38:45;7.60;99.90
26982;DHT22;14533;50.848;4.380;2022-12-07T17:41:23;7.60;99.90
26982;DHT22;14533;50.848;4.380;2022-12-07T17:44:15;7.60;99.90
26982;DHT22;14533;50.848;4.380;2022-12-07T17:46:43;7.60;99.90
26982;DHT22;14533;50.848;4.380;2022-12-07T17:49:10;7.50;99.90
26982;DHT22;14533;50.848;4.380;2022-12-07T17:51:36;7.60;99.90
26982;DHT22;14533;50.848;4.380;2022-12-07T17:54:20;7.60;99.90
26982;DHT22;14533;50.848;4.380;2022-12-07T17:56:47;7.40;99.90
26982;DHT22;14533;50.848;4.380;2022-12-07T17:59:14;7.30;99.90
26982;DHT22;14533;50.848;4.380;2022-12-07T18:01:42;7.40;99.90
26982;DHT22;14533;50.848;4.380;2022-12-07T18:04:09;7.40;99.90